sensor_id;sensor_type;location;lat;lon;timestamp;temperature;humidity
12957;DHT22;6543;48.836;10.092;2022-11-20T00:00:17;6.10;99.90
12957;DHT22;6543;48.836;10.092;2022-11-20T00:02:44;6.10;99.90
12957;DHT22;6543;48.836;10.092;2022-11-20T00:05:10;6.10;99.90
12957;DHT22;6543;48.836;10.092;2022-11-20T00:07:37;6.10;99.90
12957;DHT22;6543;48.836;10.092;2022-11-20T00:10:05;6.10;99.90
12957;DHT22;6543;48.836;10.092;2022-11-20T00:12:33;6.10;99.90
12957;DHT22;6543;48.836;10.092;2022-11-20T00:15:00;6.10;99.90
12957;DHT22;6543;48.836;10.092;2022-11-20T00:17:27;6.10;99.90
12957;DHT22;6543;48.836;10.092;2022-11-20T00:19:54;6.10;99.90
12957;DHT22;6543;48.836;10.092;2022-11-20T00:22:21;6.10;99.90
12957;DHT22;6543;48.836;10.092;2022-11-20T00:24:48;6.10;99.90
12957;DHT22;6543;48.836;10.092;2022-11-20T00:27:14;6.00;99.90
12957;DHT22;6543;48.836;10.092;2022-11-20T00:29:43;6.00;99.90
12957;DHT22;6543;48.836;10.092;2022-11-20T00:32:09;6.00;99.90
12957;DHT22;6543;48.836;10.092;2022-11-20T00:34:36;6.00;99.90
12957;DHT22;6543;48.836;10.092;2022-11-20T00:37:03;6.00;99.90
12957;DHT22;6543;48.836;10.092;2022-11-20T00:39:30;5.90;99.90
12957;DHT22;6543;48.836;10.092;2022-11-20T00:41:56;5.90;99.90
12957;DHT22;6543;48.836;10.092;2022-11-20T00:44:23;5.90;99.90
12957;DHT22;6543;48.836;10.092;2022-11-20T00:46:51;5.90;99.90
12957;DHT22;6543;48.836;10.092;2022-11-20T00:49:18;5.90;99.90
12957;DHT22;6543;48.836;10.092;2022-11-20T00:51:45;5.90;99.90
12957;DHT22;6543;48.836;10.092;2022-11-20T00:54:12;5.80;99.90
12957;DHT22;6543;48.836;10.092;2022-11-20T00:56:39;5.90;99.90
12957;DHT22;6543;48.836;10.092;2022-11-20T00:59:06;5.90;99.90
12957;DHT22;6543;48.836;10.092;2022-11-20T01:01:33;5.90;99.90
12957;DHT22;6543;48.836;10.092;2022-11-20T01:04:01;5.90;99.90
12957;DHT22;6543;48.836;10.092;2022-11-20T01:06:29;5.90;99.90
12957;DHT22;6543;48.836;10.092;2022-11-20T01:08:58;5.90;99.90
12957;DHT22;6543;48.836;10.092;2022-11-20T01:11:27;5.90;99.90
12957;DHT22;6543;48.836;10.092;2022-11-20T01:13:54;5.90;99.90
12957;DHT22;6543;48.836;10.092;2022-11-20T01:16:24;5.90;99.90
12957;DHT22;6543;48.836;10.092;2022-11-20T01:18:53;5.90;99.90
12957;DHT22;6543;48.836;10.092;2022-11-20T01:21:23;5.90;99.90
12957;DHT22;6543;48.836;10.092;2022-11-20T01:23:50;5.90;99.90
12957;DHT22;6543;48.836;10.092;2022-11-20T01:26:20;5.90;99.90
12957;DHT22;6543;48.836;10.092;2022-11-20T01:28:47;5.90;99.90
12957;DHT22;6543;48.836;10.092;2022-11-20T01:31:15;5.90;99.90
12957;DHT22;6543;48.836;10.092;2022-11-20T01:33:43;5.90;99.90
12957;DHT22;6543;48.836;10.092;2022-11-20T01:36:11;5.90;99.90
12957;DHT22;6543;48.836;10.092;2022-11-20T01:38:40;5.90;99.90
12957;DHT22;6543;48.836;10.092;2022-11-20T01:41:07;5.90;99.90
12957;DHT22;6543;48.836;10.092;2022-11-20T01:43:34;5.80;99.90
12957;DHT22;6543;48.836;10.092;2022-11-20T01:48:49;5.80;99.90
12957;DHT22;6543;48.836;10.092;2022-11-20T01:51:23;5.80;99.90
12957;DHT22;6543;48.836;10.092;2022-11-20T01:53:54;5.80;99.90
12957;DHT22;6543;48.836;10.092;2022-11-20T01:56:22;5.80;99.90
12957;DHT22;6543;48.836;10.092;2022-11-20T01:58:52;5.70;99.90
12957;DHT22;6543;48.836;10.092;2022-11-20T02:01:20;5.70;99.90
12957;DHT22;6543;48.836;10.092;2022-11-20T02:03:48;5.80;99.90
12957;DHT22;6543;48.836;10.092;2022-11-20T02:06:20;5.70;99.90
12957;DHT22;6543;48.836;10.092;2022-11-20T02:08:48;5.70;99.90
12957;DHT22;6543;48.836;10.092;2022-11-20T02:11:16;5.70;99.90
12957;DHT22;6543;48.836;10.092;2022-11-20T02:13:43;5.70;99.90
12957;DHT22;6543;48.836;10.092;2022-11-20T02:16:12;5.70;99.90
12957;DHT22;6543;48.836;10.092;2022-11-20T02:18:41;5.70;99.90
12957;DHT22;6543;48.836;10.092;2022-11-20T02:21:14;5.70;99.90
12957;DHT22;6543;48.836;10.092;2022-11-20T02:23:57;5.70;99.90
12957;DHT22;6543;48.836;10.092;2022-11-20T02:26:26;5.70;99.90
12957;DHT22;6543;48.836;10.092;2022-11-20T02:28:54;5.70;99.90
12957;DHT22;6543;48.836;10.092;2022-11-20T02:31:21;5.70;99.90
12957;DHT22;6543;48.836;10.092;2022-11-20T02:33:54;5.70;99.90
12957;DHT22;6543;48.836;10.092;2022-11-20T02:36:21;5.70;99.90
12957;DHT22;6543;48.836;10.092;2022-11-20T02:38:49;5.70;99.90
12957;DHT22;6543;48.836;10.092;2022-11-20T02:41:17;5.70;99.90
12957;DHT22;6543;48.836;10.092;2022-11-20T02:43:44;5.70;99.90
12957;DHT22;6543;48.836;10.092;2022-11-20T02:46:11;5.70;99.90
12957;DHT22;6543;48.836;10.092;2022-11-20T02:48:38;5.70;99.90
12957;DHT22;6543;48.836;10.092;2022-11-20T02:51:05;5.70;99.90
12957;DHT22;6543;48.836;10.092;2022-11-20T02:53:31;5.60;99.90
12957;DHT22;6543;48.836;10.092;2022-11-20T02:55:58;5.70;99.90
12957;DHT22;6543;48.836;10.092;2022-11-20T02:58:26;5.60;99.90
12957;DHT22;6543;48.836;10.092;2022-11-20T03:00:53;5.70;99.90
12957;DHT22;6543;48.836;10.092;2022-11-20T03:03:20;5.60;99.90
12957;DHT22;6543;48.836;10.092;2022-11-20T03:05:47;5.60;99.90
12957;DHT22;6543;48.836;10.092;2022-11-20T03:08:14;5.60;99.90
12957;DHT22;6543;48.836;10.092;2022-11-20T03:10:40;5.60;99.90
12957;DHT22;6543;48.836;10.092;2022-11-20T03:13:07;5.70;99.90
12957;DHT22;6543;48.836;10.092;2022-11-20T03:15:37;5.70;99.90
12957;DHT22;6543;48.836;10.092;2022-11-20T03:18:04;5.70;99.90
12957;DHT22;6543;48.836;10.092;2022-11-20T03:20:32;5.70;99.90
12957;DHT22;6543;48.836;10.092;2022-11-20T03:23:00;5.70;99.90
12957;DHT22;6543;48.836;10.092;2022-11-20T03:25:27;5.70;99.90
12957;DHT22;6543;48.836;10.092;2022-11-20T03:27:54;5.80;99.90
12957;DHT22;6543;48.836;10.092;2022-11-20T03:30:21;5.70;99.90
12957;DHT22;6543;48.836;10.092;2022-11-20T03:32:52;5.80;99.90
12957;DHT22;6543;48.836;10.092;2022-11-20T03:35:20;5.80;99.90
12957;DHT22;6543;48.836;10.092;2022-11-20T03:37:47;5.70;99.90
12957;DHT22;6543;48.836;10.092;2022-11-20T03:40:14;5.80;99.90
12957;DHT22;6543;48.836;10.092;2022-11-20T03:42:40;5.70;99.90
12957;DHT22;6543;48.836;10.092;2022-11-20T03:45:14;5.70;99.90
12957;DHT22;6543;48.836;10.092;2022-11-20T03:47:41;5.70;99.90
12957;DHT22;6543;48.836;10.092;2022-11-20T03:50:11;5.70;99.90
12957;DHT22;6543;48.836;10.092;2022-11-20T03:52:38;5.70;99.90
12957;DHT22;6543;48.836;10.092;2022-11-20T03:55:06;5.70;99.90
12957;DHT22;6543;48.836;10.092;2022-11-20T03:57:33;5.70;99.90
12957;DHT22;6543;48.836;10.092;2022-11-20T03:59:59;5.70;99.90
12957;DHT22;6543;48.836;10.092;2022-11-20T04:02:26;5.70;99.90
12957;DHT22;6543;48.836;10.092;2022-11-20T04:04:53;5.70;99.90
12957;DHT22;6543;48.836;10.092;2022-11-20T04:07:21;5.70;99.90
12957;DHT22;6543;48.836;10.092;2022-11-20T04:09:48;5.60;99.90
12957;DHT22;6543;48.836;10.092;2022-11-20T04:12:15;5.60;99.90
12957;DHT22;6543;48.836;10.092;2022-11-20T04:14:42;5.60;99.90
12957;DHT22;6543;48.836;10.092;2022-11-20T04:17:08;5.60;99.90
12957;DHT22;6543;48.836;10.092;2022-11-20T04:19:35;5.60;99.90
12957;DHT22;6543;48.836;10.092;2022-11-20T04:22:02;5.60;99.90
12957;DHT22;6543;48.836;10.092;2022-11-20T04:24:30;5.60;99.90
12957;DHT22;6543;48.836;10.092;2022-11-20T04:26:57;5.60;99.90
12957;DHT22;6543;48.836;10.092;2022-11-20T04:29:24;5.60;99.90
12957;DHT22;6543;48.836;10.092;2022-11-20T04:31:51;5.60;99.90
12957;DHT22;6543;48.836;10.092;2022-11-20T04:34:17;5.60;99.90
12957;DHT22;6543;48.836;10.092;2022-11-20T04:36:44;5.60;99.90
12957;DHT22;6543;48.836;10.092;2022-11-20T04:39:12;5.60;99.90
12957;DHT22;6543;48.836;10.092;2022-11-20T04:41:41;5.60;99.90
12957;DHT22;6543;48.836;10.092;2022-11-20T04:44:08;5.60;99.90
12957;DHT22;6543;48.836;10.092;2022-11-20T04:46:37;5.50;99.90
12957;DHT22;6543;48.836;10.092;2022-11-20T04:49:04;5.50;99.90
12957;DHT22;6543;48.836;10.092;2022-11-20T04:51:31;5.50;99.90
12957;DHT22;6543;48.836;10.092;2022-11-20T04:53:58;5.60;99.90
12957;DHT22;6543;48.836;10.092;2022-11-20T04:56:25;5.50;99.90
12957;DHT22;6543;48.836;10.092;2022-11-20T04:58:53;5.60;99.90
12957;DHT22;6543;48.836;10.092;2022-11-20T05:01:22;5.60;99.90
12957;DHT22;6543;48.836;10.092;2022-11-20T05:03:49;5.60;99.90
12957;DHT22;6543;48.836;10.092;2022-11-20T05:06:20;5.60;99.90
12957;DHT22;6543;48.836;10.092;2022-11-20T05:08:47;5.60;99.90
12957;DHT22;6543;48.836;10.092;2022-11-20T05:11:15;5.70;99.90
12957;DHT22;6543;48.836;10.092;2022-11-20T05:13:43;5.70;99.90
12957;DHT22;6543;48.836;10.092;2022-11-20T05:16:12;5.70;99.90
12957;DHT22;6543;48.836;10.092;2022-11-20T05:18:40;5.70;99.90
12957;DHT22;6543;48.836;10.092;2022-11-20T05:21:08;5.70;99.90
12957;DHT22;6543;48.836;10.092;2022-11-20T05:23:36;5.70;99.90
12957;DHT22;6543;48.836;10.092;2022-11-20T05:26:04;5.70;99.90
12957;DHT22;6543;48.836;10.092;2022-11-20T05:28:31;5.70;99.90
12957;DHT22;6543;48.836;10.092;2022-11-20T05:31:04;5.80;99.90
12957;DHT22;6543;48.836;10.092;2022-11-20T05:33:33;5.80;99.90
12957;DHT22;6543;48.836;10.092;2022-11-20T05:36:00;5.80;99.90
12957;DHT22;6543;48.836;10.092;2022-11-20T05:38:27;5.80;99.90
12957;DHT22;6543;48.836;10.092;2022-11-20T05:40:54;5.80;99.90
12957;DHT22;6543;48.836;10.092;2022-11-20T05:43:21;5.80;99.90
12957;DHT22;6543;48.836;10.092;2022-11-20T05:45:57;5.80;99.90
12957;DHT22;6543;48.836;10.092;2022-11-20T05:48:24;5.80;99.90
12957;DHT22;6543;48.836;10.092;2022-11-20T05:50:52;5.80;99.90
12957;DHT22;6543;48.836;10.092;2022-11-20T05:53:19;5.80;99.90
12957;DHT22;6543;48.836;10.092;2022-11-20T05:55:46;5.80;99.90
12957;DHT22;6543;48.836;10.092;2022-11-20T05:58:13;5.70;99.90
12957;DHT22;6543;48.836;10.092;2022-11-20T06:00:39;5.80;99.90
12957;DHT22;6543;48.836;10.092;2022-11-20T06:03:06;5.80;99.90
12957;DHT22;6543;48.836;10.092;2022-11-20T06:05:33;5.80;99.90
12957;DHT22;6543;48.836;10.092;2022-11-20T06:08:02;5.80;99.90
12957;DHT22;6543;48.836;10.092;2022-11-20T06:10:28;5.80;99.90
12957;DHT22;6543;48.836;10.092;2022-11-20T06:12:57;5.80;99.90
12957;DHT22;6543;48.836;10.092;2022-11-20T06:15:24;5.80;99.90
12957;DHT22;6543;48.836;10.092;2022-11-20T06:17:52;5.80;99.90
12957;DHT22;6543;48.836;10.092;2022-11-20T06:20:19;5.80;99.90
12957;DHT22;6543;48.836;10.092;2022-11-20T06:22:45;5.80;99.90
12957;DHT22;6543;48.836;10.092;2022-11-20T06:25:14;5.70;99.90
12957;DHT22;6543;48.836;10.092;2022-11-20T06:27:41;5.80;99.90
12957;DHT22;6543;48.836;10.092;2022-11-20T06:30:09;5.80;99.90
12957;DHT22;6543;48.836;10.092;2022-11-20T06:32:36;5.80;99.90
12957;DHT22;6543;48.836;10.092;2022-11-20T06:35:03;5.80;99.90
12957;DHT22;6543;48.836;10.092;2022-11-20T06:37:30;5.80;99.90
12957;DHT22;6543;48.836;10.092;2022-11-20T06:39:57;5.80;99.90
12957;DHT22;6543;48.836;10.092;2022-11-20T06:42:25;5.80;99.90
12957;DHT22;6543;48.836;10.092;2022-11-20T06:44:52;5.80;99.90
12957;DHT22;6543;48.836;10.092;2022-11-20T06:47:19;5.80;99.90
12957;DHT22;6543;48.836;10.092;2022-11-20T06:49:46;5.80;99.90
12957;DHT22;6543;48.836;10.092;2022-11-20T06:52:12;5.80;99.90
12957;DHT22;6543;48.836;10.092;2022-11-20T06:54:39;5.90;99.90
12957;DHT22;6543;48.836;10.092;2022-11-20T06:57:06;5.90;99.90
12957;DHT22;6543;48.836;10.092;2022-11-20T06:59:34;5.90;99.90
12957;DHT22;6543;48.836;10.092;2022-11-20T07:02:01;5.90;99.90
12957;DHT22;6543;48.836;10.092;2022-11-20T07:04:28;5.90;99.90
12957;DHT22;6543;48.836;10.092;2022-11-20T07:06:55;5.90;99.90
12957;DHT22;6543;48.836;10.092;2022-11-20T07:09:21;5.90;99.90
12957;DHT22;6543;48.836;10.092;2022-11-20T07:11:48;5.90;99.90
12957;DHT22;6543;48.836;10.092;2022-11-20T07:14:15;5.90;99.90
12957;DHT22;6543;48.836;10.092;2022-11-20T07:16:43;5.90;99.90
12957;DHT22;6543;48.836;10.092;2022-11-20T07:19:10;6.00;99.90
12957;DHT22;6543;48.836;10.092;2022-11-20T07:21:37;6.00;99.90
12957;DHT22;6543;48.836;10.092;2022-11-20T07:24:04;6.10;99.90
12957;DHT22;6543;48.836;10.092;2022-11-20T07:26:31;6.10;99.90
12957;DHT22;6543;48.836;10.092;2022-11-20T07:28:57;6.20;99.90
12957;DHT22;6543;48.836;10.092;2022-11-20T07:31:24;6.20;99.90
12957;DHT22;6543;48.836;10.092;2022-11-20T07:33:52;6.30;99.90
12957;DHT22;6543;48.836;10.092;2022-11-20T07:36:19;6.30;99.90
12957;DHT22;6543;48.836;10.092;2022-11-20T07:38:46;6.30;99.90
12957;DHT22;6543;48.836;10.092;2022-11-20T07:41:13;6.30;99.90
12957;DHT22;6543;48.836;10.092;2022-11-20T07:43:41;6.30;99.90
12957;DHT22;6543;48.836;10.092;2022-11-20T07:46:07;6.40;99.90
12957;DHT22;6543;48.836;10.092;2022-11-20T07:48:34;6.40;99.90
12957;DHT22;6543;48.836;10.092;2022-11-20T07:51:03;6.40;99.90
12957;DHT22;6543;48.836;10.092;2022-11-20T07:53:30;6.40;99.90
12957;DHT22;6543;48.836;10.092;2022-11-20T07:55:59;6.40;99.90
12957;DHT22;6543;48.836;10.092;2022-11-20T07:58:28;6.40;99.90
12957;DHT22;6543;48.836;10.092;2022-11-20T08:00:55;6.50;99.90
12957;DHT22;6543;48.836;10.092;2022-11-20T08:03:22;6.50;99.90
12957;DHT22;6543;48.836;10.092;2022-11-20T08:05:49;6.50;99.90
12957;DHT22;6543;48.836;10.092;2022-11-20T08:08:17;6.60;99.90
12957;DHT22;6543;48.836;10.092;2022-11-20T08:10:44;6.60;99.90
12957;DHT22;6543;48.836;10.092;2022-11-20T08:13:11;6.60;99.90
12957;DHT22;6543;48.836;10.092;2022-11-20T08:15:55;6.70;99.90
12957;DHT22;6543;48.836;10.092;2022-11-20T08:18:22;6.70;99.90
12957;DHT22;6543;48.836;10.092;2022-11-20T08:20:48;6.70;99.90
12957;DHT22;6543;48.836;10.092;2022-11-20T08:23:17;6.70;99.90
12957;DHT22;6543;48.836;10.092;2022-11-20T08:25:43;6.90;99.90
12957;DHT22;6543;48.836;10.092;2022-11-20T08:28:15;6.90;99.90
12957;DHT22;6543;48.836;10.092;2022-11-20T08:30:42;6.90;99.90
12957;DHT22;6543;48.836;10.092;2022-11-20T08:33:09;7.00;99.90
12957;DHT22;6543;48.836;10.092;2022-11-20T08:35:36;7.00;99.90
12957;DHT22;6543;48.836;10.092;2022-11-20T08:38:05;7.10;99.90
12957;DHT22;6543;48.836;10.092;2022-11-20T08:40:33;7.10;99.90
12957;DHT22;6543;48.836;10.092;2022-11-20T08:43:00;7.10;99.90
12957;DHT22;6543;48.836;10.092;2022-11-20T08:45:27;7.10;99.90
12957;DHT22;6543;48.836;10.092;2022-11-20T08:47:59;7.20;99.90
12957;DHT22;6543;48.836;10.092;2022-11-20T08:50:26;7.20;99.90
12957;DHT22;6543;48.836;10.092;2022-11-20T08:52:53;7.10;99.90
12957;DHT22;6543;48.836;10.092;2022-11-20T08:55:20;7.10;99.90
12957;DHT22;6543;48.836;10.092;2022-11-20T08:57:48;7.00;99.90
12957;DHT22;6543;48.836;10.092;2022-11-20T09:00:16;6.90;99.90
12957;DHT22;6543;48.836;10.092;2022-11-20T09:02:43;6.80;99.90
12957;DHT22;6543;48.836;10.092;2022-11-20T09:05:10;6.80;99.90
12957;DHT22;6543;48.836;10.092;2022-11-20T09:07:36;6.70;99.90
12957;DHT22;6543;48.836;10.092;2022-11-20T09:10:04;6.70;99.90
12957;DHT22;6543;48.836;10.092;2022-11-20T09:12:33;6.50;99.90
12957;DHT22;6543;48.836;10.092;2022-11-20T09:15:01;6.40;99.90
12957;DHT22;6543;48.836;10.092;2022-11-20T09:17:28;6.40;99.90
12957;DHT22;6543;48.836;10.092;2022-11-20T09:19:55;6.40;99.90
12957;DHT22;6543;48.836;10.092;2022-11-20T09:22:21;6.40;99.90
12957;DHT22;6543;48.836;10.092;2022-11-20T09:24:48;6.30;99.90
12957;DHT22;6543;48.836;10.092;2022-11-20T09:27:15;7.00;99.90
12957;DHT22;6543;48.836;10.092;2022-11-20T09:29:45;6.30;99.90
12957;DHT22;6543;48.836;10.092;2022-11-20T09:32:14;6.40;99.90
12957;DHT22;6543;48.836;10.092;2022-11-20T09:34:41;6.50;99.90
12957;DHT22;6543;48.836;10.092;2022-11-20T09:37:07;6.50;99.90
12957;DHT22;6543;48.836;10.092;2022-11-20T09:39:34;6.60;99.90
12957;DHT22;6543;48.836;10.092;2022-11-20T09:42:32;6.60;99.90
12957;DHT22;6543;48.836;10.092;2022-11-20T09:45:18;6.70;99.90
12957;DHT22;6543;48.836;10.092;2022-11-20T09:48:18;6.50;99.90
12957;DHT22;6543;48.836;10.092;2022-11-20T09:50:51;6.50;99.90
12957;DHT22;6543;48.836;10.092;2022-11-20T09:53:24;6.50;99.90
12957;DHT22;6543;48.836;10.092;2022-11-20T09:55:55;6.40;99.90
12957;DHT22;6543;48.836;10.092;2022-11-20T09:58:28;6.50;99.90
12957;DHT22;6543;48.836;10.092;2022-11-20T10:01:03;6.40;99.90
12957;DHT22;6543;48.836;10.092;2022-11-20T10:03:39;6.30;99.90
12957;DHT22;6543;48.836;10.092;2022-11-20T10:06:12;6.20;99.90
12957;DHT22;6543;48.836;10.092;2022-11-20T10:08:44;6.20;99.90
12957;DHT22;6543;48.836;10.092;2022-11-20T10:11:19;6.20;99.90
12957;DHT22;6543;48.836;10.092;2022-11-20T10:13:56;6.20;99.90
12957;DHT22;6543;48.836;10.092;2022-11-20T10:16:36;6.20;99.90
12957;DHT22;6543;48.836;10.092;2022-11-20T10:19:20;6.20;99.90
12957;DHT22;6543;48.836;10.092;2022-11-20T10:21:58;6.20;99.90
12957;DHT22;6543;48.836;10.092;2022-11-20T10:24:42;6.20;99.90
12957;DHT22;6543;48.836;10.092;2022-11-20T10:27:29;6.30;99.90
12957;DHT22;6543;48.836;10.092;2022-11-20T10:30:02;6.20;99.90
12957;DHT22;6543;48.836;10.092;2022-11-20T10:32:35;6.20;99.90
12957;DHT22;6543;48.836;10.092;2022-11-20T10:35:14;6.30;99.90
12957;DHT22;6543;48.836;10.092;2022-11-20T10:37:44;6.20;99.90
12957;DHT22;6543;48.836;10.092;2022-11-20T10:40:21;6.30;99.90
12957;DHT22;6543;48.836;10.092;2022-11-20T10:42:51;6.30;99.90
12957;DHT22;6543;48.836;10.092;2022-11-20T10:45:32;6.30;99.90
12957;DHT22;6543;48.836;10.092;2022-11-20T10:48:10;6.30;99.90
12957;DHT22;6543;48.836;10.092;2022-11-20T10:50:46;6.20;99.90
12957;DHT22;6543;48.836;10.092;2022-11-20T10:53:25;6.20;99.90
12957;DHT22;6543;48.836;10.092;2022-11-20T10:56:02;6.20;99.90
12957;DHT22;6543;48.836;10.092;2022-11-20T10:58:39;6.20;99.90
12957;DHT22;6543;48.836;10.092;2022-11-20T11:01:15;6.20;99.90
12957;DHT22;6543;48.836;10.092;2022-11-20T11:03:42;6.20;99.90
12957;DHT22;6543;48.836;10.092;2022-11-20T11:06:17;6.10;99.90
12957;DHT22;6543;48.836;10.092;2022-11-20T11:08:47;6.20;99.90
12957;DHT22;6543;48.836;10.092;2022-11-20T11:11:21;6.20;99.90
12957;DHT22;6543;48.836;10.092;2022-11-20T11:13:48;6.20;99.90
12957;DHT22;6543;48.836;10.092;2022-11-20T11:16:23;6.20;99.90
12957;DHT22;6543;48.836;10.092;2022-11-20T11:18:50;6.30;99.90
12957;DHT22;6543;48.836;10.092;2022-11-20T11:21:26;6.30;99.90
12957;DHT22;6543;48.836;10.092;2022-11-20T11:24:03;6.30;99.90
12957;DHT22;6543;48.836;10.092;2022-11-20T11:26:30;6.40;99.90
12957;DHT22;6543;48.836;10.092;2022-11-20T11:28:59;6.50;99.90
12957;DHT22;6543;48.836;10.092;2022-11-20T11:31:27;6.50;99.90
12957;DHT22;6543;48.836;10.092;2022-11-20T11:34:04;6.40;99.90
12957;DHT22;6543;48.836;10.092;2022-11-20T11:36:34;6.40;99.90
12957;DHT22;6543;48.836;10.092;2022-11-20T11:39:03;6.30;99.90
12957;DHT22;6543;48.836;10.092;2022-11-20T11:41:33;6.20;99.90
12957;DHT22;6543;48.836;10.092;2022-11-20T11:44:12;6.10;99.90
12957;DHT22;6543;48.836;10.092;2022-11-20T11:46:59;6.10;99.90
12957;DHT22;6543;48.836;10.092;2022-11-20T11:49:26;6.10;99.90
12957;DHT22;6543;48.836;10.092;2022-11-20T11:52:03;6.10;99.90
12957;DHT22;6543;48.836;10.092;2022-11-20T11:54:36;6.10;99.90
12957;DHT22;6543;48.836;10.092;2022-11-20T11:57:12;6.00;99.90
12957;DHT22;6543;48.836;10.092;2022-11-20T11:59:53;6.00;99.90
12957;DHT22;6543;48.836;10.092;2022-11-20T12:02:31;6.00;99.90
12957;DHT22;6543;48.836;10.092;2022-11-20T12:05:05;6.00;99.90
12957;DHT22;6543;48.836;10.092;2022-11-20T12:07:41;6.00;99.90
12957;DHT22;6543;48.836;10.092;2022-11-20T12:10:17;6.00;99.90
12957;DHT22;6543;48.836;10.092;2022-11-20T12:12:50;6.00;99.90
12957;DHT22;6543;48.836;10.092;2022-11-20T12:15:25;6.00;99.90
12957;DHT22;6543;48.836;10.092;2022-11-20T12:17:52;6.00;99.90
12957;DHT22;6543;48.836;10.092;2022-11-20T12:20:20;6.00;99.90
12957;DHT22;6543;48.836;10.092;2022-11-20T12:22:56;6.10;99.90
12957;DHT22;6543;48.836;10.092;2022-11-20T12:25:29;6.20;99.90
12957;DHT22;6543;48.836;10.092;2022-11-20T12:28:13;6.10;99.90
12957;DHT22;6543;48.836;10.092;2022-11-20T12:30:51;6.10;99.90
12957;DHT22;6543;48.836;10.092;2022-11-20T12:33:32;6.10;99.90
12957;DHT22;6543;48.836;10.092;2022-11-20T12:36:12;6.10;99.90
12957;DHT22;6543;48.836;10.092;2022-11-20T12:39:02;6.10;99.90
12957;DHT22;6543;48.836;10.092;2022-11-20T12:45:10;6.30;99.90
12957;DHT22;6543;48.836;10.092;2022-11-20T12:48:05;6.50;99.90
12957;DHT22;6543;48.836;10.092;2022-11-20T12:50:46;6.60;99.90
12957;DHT22;6543;48.836;10.092;2022-11-20T12:53:24;6.60;99.90
12957;DHT22;6543;48.836;10.092;2022-11-20T12:55:58;6.80;99.90
12957;DHT22;6543;48.836;10.092;2022-11-20T12:58:36;7.20;99.90
12957;DHT22;6543;48.836;10.092;2022-11-20T13:01:17;7.30;99.90
12957;DHT22;6543;48.836;10.092;2022-11-20T13:04:08;7.20;99.90
12957;DHT22;6543;48.836;10.092;2022-11-20T13:06:39;7.20;99.90
12957;DHT22;6543;48.836;10.092;2022-11-20T13:09:10;7.20;99.90
12957;DHT22;6543;48.836;10.092;2022-11-20T13:11:43;7.40;99.90
12957;DHT22;6543;48.836;10.092;2022-11-20T13:14:20;7.30;99.90
12957;DHT22;6543;48.836;10.092;2022-11-20T13:16:55;7.30;99.90
12957;DHT22;6543;48.836;10.092;2022-11-20T13:19:25;7.30;99.90
12957;DHT22;6543;48.836;10.092;2022-11-20T13:21:54;7.40;99.90
12957;DHT22;6543;48.836;10.092;2022-11-20T13:24:23;7.20;99.90
12957;DHT22;6543;48.836;10.092;2022-11-20T13:27:20;7.20;99.90
12957;DHT22;6543;48.836;10.092;2022-11-20T13:30:00;7.30;99.90
12957;DHT22;6543;48.836;10.092;2022-11-20T13:32:28;7.30;99.90
12957;DHT22;6543;48.836;10.092;2022-11-20T13:34:59;7.30;99.90
12957;DHT22;6543;48.836;10.092;2022-11-20T13:37:29;7.20;99.90
12957;DHT22;6543;48.836;10.092;2022-11-20T13:40:12;7.20;99.90
12957;DHT22;6543;48.836;10.092;2022-11-20T13:42:44;7.20;99.90
12957;DHT22;6543;48.836;10.092;2022-11-20T13:45:22;7.10;99.90
12957;DHT22;6543;48.836;10.092;2022-11-20T13:47:50;7.10;99.90
12957;DHT22;6543;48.836;10.092;2022-11-20T13:50:18;7.10;99.90
12957;DHT22;6543;48.836;10.092;2022-11-20T13:52:55;7.00;99.90
12957;DHT22;6543;48.836;10.092;2022-11-20T13:55:31;7.00;99.90
12957;DHT22;6543;48.836;10.092;2022-11-20T13:58:19;6.90;99.90
12957;DHT22;6543;48.836;10.092;2022-11-20T14:00:55;6.90;99.90
12957;DHT22;6543;48.836;10.092;2022-11-20T14:03:24;6.90;99.90
12957;DHT22;6543;48.836;10.092;2022-11-20T14:05:55;6.90;99.90
12957;DHT22;6543;48.836;10.092;2022-11-20T14:08:30;7.00;99.90
12957;DHT22;6543;48.836;10.092;2022-11-20T14:11:14;7.00;99.90
12957;DHT22;6543;48.836;10.092;2022-11-20T14:13:54;7.10;99.90
12957;DHT22;6543;48.836;10.092;2022-11-20T14:16:21;7.20;99.90
12957;DHT22;6543;48.836;10.092;2022-11-20T14:18:49;7.20;99.90
12957;DHT22;6543;48.836;10.092;2022-11-20T14:21:25;7.20;99.90
12957;DHT22;6543;48.836;10.092;2022-11-20T14:23:53;7.20;99.90
12957;DHT22;6543;48.836;10.092;2022-11-20T14:26:20;7.20;99.90
12957;DHT22;6543;48.836;10.092;2022-11-20T14:28:49;7.30;99.90
12957;DHT22;6543;48.836;10.092;2022-11-20T14:31:23;7.20;99.90
12957;DHT22;6543;48.836;10.092;2022-11-20T14:33:51;7.20;99.90
12957;DHT22;6543;48.836;10.092;2022-11-20T14:36:20;7.20;99.90
12957;DHT22;6543;48.836;10.092;2022-11-20T14:38:48;7.10;99.90
12957;DHT22;6543;48.836;10.092;2022-11-20T14:41:18;7.00;99.90
12957;DHT22;6543;48.836;10.092;2022-11-20T14:43:46;7.00;99.90
12957;DHT22;6543;48.836;10.092;2022-11-20T14:46:14;6.90;99.90
12957;DHT22;6543;48.836;10.092;2022-11-20T14:48:45;6.90;99.90
12957;DHT22;6543;48.836;10.092;2022-11-20T14:51:25;6.90;99.90
12957;DHT22;6543;48.836;10.092;2022-11-20T14:53:53;6.80;99.90
12957;DHT22;6543;48.836;10.092;2022-11-20T14:56:22;6.80;99.90
12957;DHT22;6543;48.836;10.092;2022-11-20T14:58:56;6.80;99.90
12957;DHT22;6543;48.836;10.092;2022-11-20T15:01:26;6.70;99.90
12957;DHT22;6543;48.836;10.092;2022-11-20T15:04:00;6.70;99.90
12957;DHT22;6543;48.836;10.092;2022-11-20T15:06:27;6.70;99.90
12957;DHT22;6543;48.836;10.092;2022-11-20T15:08:55;6.70;99.90
12957;DHT22;6543;48.836;10.092;2022-11-20T15:11:28;6.60;99.90
12957;DHT22;6543;48.836;10.092;2022-11-20T15:13:55;6.60;99.90
12957;DHT22;6543;48.836;10.092;2022-11-20T15:16:23;6.50;99.90
12957;DHT22;6543;48.836;10.092;2022-11-20T15:18:52;6.50;99.90
12957;DHT22;6543;48.836;10.092;2022-11-20T15:21:20;6.50;99.90
12957;DHT22;6543;48.836;10.092;2022-11-20T15:23:48;6.50;99.90
12957;DHT22;6543;48.836;10.092;2022-11-20T15:26:20;6.50;99.90
12957;DHT22;6543;48.836;10.092;2022-11-20T15:28:48;6.50;99.90
12957;DHT22;6543;48.836;10.092;2022-11-20T15:31:17;6.50;99.90
12957;DHT22;6543;48.836;10.092;2022-11-20T15:33:45;6.40;99.90
12957;DHT22;6543;48.836;10.092;2022-11-20T15:36:12;6.50;99.90
12957;DHT22;6543;48.836;10.092;2022-11-20T15:38:41;6.50;99.90
12957;DHT22;6543;48.836;10.092;2022-11-20T15:41:08;6.40;99.90
12957;DHT22;6543;48.836;10.092;2022-11-20T15:43:35;6.40;99.90
12957;DHT22;6543;48.836;10.092;2022-11-20T15:46:04;6.30;99.90
12957;DHT22;6543;48.836;10.092;2022-11-20T15:48:34;6.30;99.90
12957;DHT22;6543;48.836;10.092;2022-11-20T15:51:05;6.30;99.90
12957;DHT22;6543;48.836;10.092;2022-11-20T15:53:33;6.30;99.90
12957;DHT22;6543;48.836;10.092;2022-11-20T15:56:01;6.20;99.90
12957;DHT22;6543;48.836;10.092;2022-11-20T15:58:28;6.20;99.90
12957;DHT22;6543;48.836;10.092;2022-11-20T16:00:55;6.10;99.90
12957;DHT22;6543;48.836;10.092;2022-11-20T16:03:23;6.20;99.90
12957;DHT22;6543;48.836;10.092;2022-11-20T16:05:50;6.20;99.90
12957;DHT22;6543;48.836;10.092;2022-11-20T16:08:17;6.10;99.90